Time;durP1;ratioP1;P1;durP2;ratioP2;P2;SDS_P1;SDS_P2;PMS_P1;PMS_P2;Temp;Humidity;BMP_temperature;BMP_pressure;BME280_temperature;BME280_humidity;BME280_pressure;Samples;Min_cycle;Max_cycle;Signal;HPM_P1;HPM_P2
2023/04/19 06:15:49;;;;;;;21.20;13.90;;;;;;;8.78;91.15;100394.48;1805393;79;27344;-52
2023/04/19 06:18:17;;;;;;;20.10;13.50;;;;;;;8.78;90.09;100389.08;1772883;80;25442;-51
2023/04/19 06:20:44;;;;;;;22.85;14.05;;;;;;;8.76;90.00;100389.37;1773179;80;25468;-52
2023/04/19 06:23:11;;;;;;;19.42;13.93;;;;;;;8.79;90.13;100384.75;1775136;80;25544;-56
2023/04/19 06:25:38;;;;;;;25.80;14.28;;;;;;;8.85;90.54;100382.76;1798593;79;25570;-52
2023/04/19 06:28:06;;;;;;;21.85;14.75;;;;;;;8.93;91.16;100379.95;1775208;80;27387;-55
2023/04/19 06:30:34;;;;;;;19.25;13.72;;;;;;;9.05;91.61;100382.97;1775189;80;25716;-54
2023/04/19 06:33:02;;;;;;;21.15;14.33;;;;;;;9.16;91.11;100380.36;1775181;80;25581;-55
2023/04/19 06:35:29;;;;;;;19.98;14.23;;;;;;;9.23;90.92;100379.97;1775123;80;25903;-56
2023/04/19 06:37:55;;;;;;;21.48;14.60;;;;;;;9.31;90.90;100372.55;1775185;80;25594;-55
2023/04/19 06:40:24;;;;;;;18.35;12.95;;;;;;;9.42;90.90;100374.49;1775145;80;28024;-54
2023/04/19 06:42:53;;;;;;;19.17;13.08;;;;;;;9.48;90.08;100376.54;1775127;80;25429;-55
2023/04/19 06:45:22;;;;;;;18.15;12.65;;;;;;;9.49;89.85;100378.94;1775176;80;25537;-55
2023/04/19 06:47:51;;;;;;;18.82;12.23;;;;;;;9.51;89.30;100371.33;1775256;80;25892;-56
2023/04/19 06:50:19;;;;;;;19.02;12.85;;;;;;;9.51;89.28;100371.33;1775202;80;25673;-55
2023/04/19 06:52:47;;;;;;;16.77;12.17;;;;;;;9.57;89.34;100380.69;1775418;80;28382;-57
2023/04/19 06:55:16;;;;;;;18.05;12.45;;;;;;;9.54;88.70;100380.75;1775052;80;25744;-55
2023/04/19 06:57:43;;;;;;;19.00;11.73;;;;;;;9.53;88.90;100380.48;1753760;80;25657;-56
2023/04/19 07:00:14;;;;;;;17.15;10.40;;;;;;;9.49;88.07;100388.39;1775113;80;26181;-53
2023/04/19 07:02:42;;;;;;;15.03;10.68;;;;;;;9.44;87.69;100385.78;1775195;80;25456;-54
2023/04/19 07:05:12;;;;;;;16.95;10.82;;;;;;;9.42;87.67;100391.25;1775173;80;28013;-53
2023/04/19 07:07:40;;;;;;;16.02;10.58;;;;;;;9.39;88.13;100391.28;1775263;80;25381;-54
2023/04/19 07:10:09;;;;;;;16.85;10.35;;;;;;;9.38;88.01;100391.05;1775185;80;25499;-52
2023/04/19 07:12:37;;;;;;;17.67;11.18;;;;;;;9.35;87.55;100385.68;1775261;80;25654;-52
2023/04/19 07:15:08;;;;;;;16.42;10.25;;;;;;;9.31;87.17;100387.39;1775253;80;25601;-55
2023/04/19 07:17:36;;;;;;;14.03;9.68;;;;;;;9.28;87.39;100389.33;1775094;80;27334;-52
2023/04/19 07:20:07;;;;;;;15.37;10.50;;;;;;;9.33;87.61;100387.06;1775307;80;25542;-56
2023/04/19 07:22:35;;;;;;;16.37;10.30;;;;;;;9.36;88.15;100394.57;1775189;80;25411;-53
2023/04/19 07:25:06;;;;;;;17.02;9.83;;;;;;;9.36;87.46;100393.22;1775143;80;25625;-55
2023/04/19 07:27:34;;;;;;;15.48;10.63;;;;;;;9.38;87.62;100388.88;1775251;80;25423;-54
2023/04/19 07:30:04;;;;;;;13.98;10.05;;;;;;;9.42;87.37;100391.25;1775185;80;28057;-53
2023/04/19 07:32:31;;;;;;;14.93;9.80;;;;;;;9.41;87.17;100392.34;1775239;80;25605;-56
2023/04/19 07:34:58;;;;;;;15.45;9.95;;;;;;;9.39;86.81;100395.89;1775266;80;25493;-52
2023/04/19 07:37:25;;;;;;;14.53;10.58;;;;;;;9.42;86.95;100399.34;1775306;80;25452;-52
2023/04/19 07:39:53;;;;;;;16.23;11.75;;;;;;;9.45;87.41;100396.84;1775245;80;25561;-52
2023/04/19 07:42:21;;;;;;;15.70;11.22;;;;;;;9.48;86.75;100398.14;1775259;80;27311;-52
2023/04/19 07:44:49;;;;;;;17.27;11.45;;;;;;;9.50;86.80;100393.23;1775224;80;25504;-53
2023/04/19 07:47:18;;;;;;;13.98;10.65;;;;;;;9.57;87.52;100392.84;1775283;80;25661;-52
2023/04/19 07:49:45;;;;;;;16.77;9.88;;;;;;;9.66;87.76;100393.20;1775194;80;25519;-51
2023/04/19 07:52:13;;;;;;;16.60;11.28;;;;;;;9.76;87.19;100394.11;1775329;80;25621;-53
2023/04/19 07:54:40;;;;;;;14.68;10.75;;;;;;;9.85;87.75;100384.98;1775323;80;27390;-52
2023/04/19 07:57:08;;;;;;;15.95;9.98;;;;;;;10.02;88.25;100386.28;1775170;80;25993;-52
2023/04/19 07:59:34;;;;;;;13.58;9.40;;;;;;;10.15;87.05;100385.46;1775233;80;25420;-53
2023/04/19 08:02:00;;;;;;;12.63;9.00;;;;;;;10.28;87.09;100382.46;1775240;80;25637;-53
2023/04/19 08:04:28;;;;;;;11.75;9.60;;;;;;;10.47;87.30;100383.68;1775334;80;25563;-54
2023/04/19 08:06:55;;;;;;;12.18;8.38;;;;;;;10.60;85.98;100382.05;1775252;80;27321;-51
2023/04/19 08:09:21;;;;;;;14.98;9.48;;;;;;;10.70;85.44;100382.36;1775184;80;25537;-52
2023/04/19 08:11:47;;;;;;;10.50;8.00;;;;;;;10.86;85.76;100390.90;1775301;80;25565;-55
2023/04/19 08:14:13;;;;;;;13.70;8.20;;;;;;;10.90;83.50;100383.22;1775262;80;25575;-51
2023/04/19 08:16:41;;;;;;;10.70;7.67;;;;;;;10.91;82.94;100388.06;1771864;80;25383;-52
2023/04/19 08:19:08;;;;;;;11.90;8.25;;;;;;;10.90;83.01;100375.09;1739613;82;27322;-52
2023/04/19 08:21:34;;;;;;;13.72;8.33;;;;;;;10.97;83.20;100379.52;1739485;82;25754;-56
2023/04/19 08:24:00;;;;;;;12.03;8.65;;;;;;;11.02;82.65;100382.09;1739543;82;25663;-52
2023/04/19 08:26:28;;;;;;;13.05;8.35;;;;;;;11.09;82.36;100387.63;1739586;82;25469;-53
2023/04/19 08:28:54;;;;;;;11.33;8.35;;;;;;;11.12;81.93;100386.45;1739663;82;25616;-55
2023/04/19 08:31:20;;;;;;;10.98;7.62;;;;;;;11.12;81.60;100386.45;1739558;81;27337;-56
2023/04/19 08:33:48;;;;;;;11.88;8.30;;;;;;;11.15;81.10;100387.19;1739473;82;25586;-56
2023/04/19 08:36:15;;;;;;;10.72;7.37;;;;;;;11.19;80.95;100386.02;1727170;82;25685;-52
2023/04/19 08:38:44;;;;;;;11.90;8.00;;;;;;;11.25;80.83;100389.37;1776921;80;25546;-55
2023/04/19 08:41:12;;;;;;;9.68;7.33;;;;;;;11.27;80.14;100395.28;1739267;82;25582;-57
2023/04/19 08:43:42;;;;;;;9.23;7.27;;;;;;;11.27;79.97;100398.80;1777245;80;27418;-52
2023/04/19 08:46:12;;;;;;;11.95;7.70;;;;;;;11.27;79.82;100400.16;1739499;82;25453;-53
2023/04/19 08:48:41;;;;;;;9.80;7.50;;;;;;;11.33;80.02;100392.69;1777037;80;25465;-56
2023/04/19 08:51:12;;;;;;;9.53;7.03;;;;;;;11.33;79.95;100393.48;1776894;80;25565;-52
2023/04/19 08:53:41;;;;;;;9.33;7.10;;;;;;;11.43;79.75;100395.69;1776976;80;25431;-53
2023/04/19 08:56:09;;;;;;;9.93;6.90;;;;;;;11.49;79.18;100397.95;1739478;82;29488;-53
2023/04/19 08:58:35;;;;;;;10.60;7.17;;;;;;;11.49;79.08;100401.20;1755132;80;25439;-52
2023/04/19 09:01:08;;;;;;;12.28;7.50;;;;;;;11.52;79.00;100401.37;1739474;82;25540;-53
2023/04/19 09:03:39;;;;;;;11.48;7.42;;;;;;;11.54;78.49;100405.12;1777034;80;25383;-53
2023/04/19 09:06:07;;;;;;;9.15;6.90;;;;;;;11.52;77.74;100401.94;1739066;82;25575;-52
2023/04/19 09:08:33;;;;;;;11.00;7.92;;;;;;;11.43;77.33;100407.88;1777415;80;27349;-55
2023/04/19 09:11:01;;;;;;;12.93;6.83;;;;;;;11.35;77.21;100412.12;1776785;80;25534;-52
2023/04/19 09:13:30;;;;;;;12.25;7.22;;;;;;;11.31;77.25;100412.52;1739472;82;25374;-56
2023/04/19 09:16:03;;;;;;;10.30;7.47;;;;;;;11.24;77.03;100405.37;1777258;80;25622;-53
2023/04/19 09:18:26;;;;;;;14.43;7.85;;;;;;;11.18;77.10;100409.56;1752118;81;25391;-56
2023/04/19 09:20:56;;;;;;;11.95;7.80;;;;;;;11.16;77.29;100406.37;1762711;81;27371;-55
2023/04/19 09:23:26;;;;;;;14.15;7.78;;;;;;;11.14;77.42;100401.04;1762614;81;25583;-51
2023/04/19 09:26:00;;;;;;;13.88;9.15;;;;;;;11.11;77.58;100411.91;1803580;79;25432;-55
2023/04/19 09:28:31;;;;;;;13.65;9.48;;;;;;;11.09;77.11;100414.14;1803747;79;25571;-54
2023/04/19 09:31:03;;;;;;;12.88;8.70;;;;;;;11.00;77.04;100416.00;1803627;79;25459;-52
2023/04/19 09:33:44;;;;;;;21.45;10.85;;;;;;;10.94;77.20;100422.64;1800183;79;27338;-54
2023/04/19 09:36:08;;;;;;;15.65;10.20;;;;;;;10.88;76.97;100415.73;1801322;79;25408;-52
2023/04/19 09:38:49;;;;;;;17.60;12.40;;;;;;;10.82;77.01;100425.33;1803785;79;25433;-54
2023/04/19 09:41:17;;;;;;;16.75;13.45;;;;;;;10.77;77.32;100419.25;1762277;81;25638;-52
2023/04/19 09:43:45;;;;;;;13.88;8.83;;;;;;;10.76;77.72;100422.52;1803316;79;25632;-52
2023/04/19 09:46:33;;;;;;;15.63;8.83;;;;;;;10.73;77.25;100419.63;1803644;79;27376;-52
2023/04/19 09:49:19;;;;;;;12.18;8.58;;;;;;;10.63;76.85;100417.95;1803528;79;25685;-53
2023/04/19 09:51:56;;;;;;;12.33;8.78;;;;;;;10.57;76.96;100421.34;1801423;79;25555;-50
2023/04/19 09:54:28;;;;;;;14.38;8.93;;;;;;;10.50;77.10;100427.70;1803587;79;27434;-52
2023/04/19 09:56:55;;;;;;;15.48;8.48;;;;;;;10.49;77.62;100423.41;1803596;79;25405;-54
2023/04/19 09:59:23;;;;;;;11.63;8.38;;;;;;;10.48;77.87;100423.72;1803524;79;27277;-56
2023/04/19 10:01:55;;;;;;;12.47;8.35;;;;;;;10.48;77.90;100423.72;1803499;79;25594;-54
2023/04/19 10:04:24;;;;;;;12.23;8.83;;;;;;;10.48;78.15;100424.50;1803609;79;25376;-53
2023/04/19 10:06:54;;;;;;;14.38;9.53;;;;;;;10.50;78.46;100425.55;1803758;79;25600;-54
2023/04/19 10:09:25;;;;;;;14.47;8.98;;;;;;;10.50;78.34;100422.29;1803764;79;25591;-51
2023/04/19 10:11:57;;;;;;;14.45;8.43;;;;;;;10.50;78.45;100426.91;1803776;79;27330;-58
2023/04/19 10:14:27;;;;;;;11.80;8.38;;;;;;;10.52;78.55;100424.69;1803570;79;25523;-58
2023/04/19 10:16:55;;;;;;;12.60;8.45;;;;;;;10.51;78.38;100419.84;1803670;79;25593;-57
2023/04/19 10:19:24;;;;;;;13.38;9.55;;;;;;;10.53;78.51;100422.25;1808156;79;25428;-56
2023/04/19 10:21:52;;;;;;;13.62;8.55;;;;;;;10.54;78.61;100426.53;1811971;79;25404;-57
2023/04/19 10:24:22;;;;;;;14.15;8.73;;;;;;;10.56;78.83;100420.29;1814138;79;27324;-59
2023/04/19 10:27:15;;;;;;;11.70;9.05;;;;;;;10.62;79.06;100419.87;1814120;79;25411;-55
2023/04/19 10:30:06;;;;;;;13.62;9.35;;;;;;;10.68;79.12;100421.89;1814177;79;25539;-57
2023/04/19 10:32:42;;;;;;;12.73;9.15;;;;;;;10.75;79.25;100420.91;1813420;78;25380;-58
2023/04/19 10:35:20;;;;;;;15.18;10.30;;;;;;;10.83;79.20;100426.95;1814324;79;25405;-58
2023/04/19 10:38:13;;;;;;;11.93;8.43;;;;;;;10.86;78.98;100422.02;1775006;80;27321;-56
2023/04/19 10:41:02;;;;;;;12.33;8.58;;;;;;;10.89;78.62;100426.82;1775106;80;25421;-58
2023/04/19 10:43:34;;;;;;;12.60;8.13;;;;;;;10.90;78.57;100427.08;1775274;80;25390;-58
2023/04/19 10:46:24;;;;;;;11.03;7.53;;;;;;;10.89;78.25;100420.84;1775159;80;27430;-60
2023/04/19 10:49:01;;;;;;;9.63;7.25;;;;;;;10.92;78.21;100419.45;1765304;80;25536;-59
2023/04/19 10:51:35;;;;;;;11.48;7.78;;;;;;;11.03;79.06;100417.53;1775258;80;27308;-60
2023/04/19 10:54:31;;;;;;;11.93;8.03;;;;;;;11.19;79.16;100413.87;1779137;80;25420;-60
2023/04/19 10:57:09;;;;;;;10.48;7.97;;;;;;;11.38;79.69;100418.28;1775185;80;25420;-58
2023/04/19 10:59:43;;;;;;;11.00;7.40;;;;;;;11.63;79.90;100422.23;1775253;80;25586;-57
2023/04/19 11:02:27;;;;;;;12.28;7.80;;;;;;;11.92;79.25;100422.28;1742170;82;25638;-57
2023/04/19 11:04:59;;;;;;;15.78;7.62;;;;;;;12.09;78.16;100423.67;1775363;80;27228;-58
2023/04/19 11:07:28;;;;;;;9.00;7.28;;;;;;;12.29;77.41;100411.97;1775261;80;27219;-57
2023/04/19 11:09:54;;;;;;;10.43;7.30;;;;;;;12.45;77.15;100425.88;1775552;80;25392;-56
2023/04/19 11:12:22;;;;;;;11.03;7.37;;;;;;;12.62;76.16;100421.81;1775269;80;25609;-58
2023/04/19 11:14:58;;;;;;;8.83;6.67;;;;;;;12.78;76.08;100426.19;1775318;80;25381;-57
2023/04/19 11:17:32;;;;;;;8.30;6.83;;;;;;;13.05;75.80;100414.18;1775334;80;29433;-57
2023/04/19 11:20:10;;;;;;;9.80;7.10;;;;;;;13.51;75.60;100413.78;1775233;80;25458;-58
2023/04/19 11:22:47;;;;;;;10.20;7.22;;;;;;;13.83;74.82;100416.44;1775331;80;25562;-58
2023/04/19 11:25:21;;;;;;;9.23;6.90;;;;;;;14.34;73.90;100409.08;1775327;80;25598;-59
2023/04/19 11:27:51;;;;;;;8.03;6.58;;;;;;;15.05;74.50;100406.02;1775383;80;25572;-59
2023/04/19 11:30:24;;;;;;;10.43;7.03;;;;;;;15.83;74.41;100408.97;1811448;79;27307;-57
2023/04/19 11:32:56;;;;;;;8.10;6.28;;;;;;;16.49;72.09;100420.13;1813359;78;25578;-56
2023/04/19 11:35:27;;;;;;;6.92;5.83;;;;;;;16.64;67.68;100421.91;1814241;79;25533;-56
2023/04/19 11:37:56;;;;;;;7.85;6.15;;;;;;;16.88;68.24;100422.41;1814331;79;25566;-55
2023/04/19 11:40:25;;;;;;;7.97;6.43;;;;;;;17.09;66.92;100433.13;1792013;79;25407;-51
2023/04/19 11:42:59;;;;;;;8.85;6.25;;;;;;;17.12;65.52;100420.91;1814320;79;27936;-52
2023/04/19 11:45:36;;;;;;;8.33;5.87;;;;;;;17.20;65.09;100416.44;1814365;79;25641;-54
2023/04/19 11:48:07;;;;;;;9.83;5.72;;;;;;;17.22;63.56;100419.61;1814283;79;25515;-51
2023/04/19 11:50:41;;;;;;;7.80;5.87;;;;;;;16.97;62.28;100422.49;1812723;79;26006;-52
2023/04/19 11:53:22;;;;;;;6.95;5.35;;;;;;;16.90;62.56;100424.22;1814375;78;25430;-50
2023/04/19 11:55:52;;;;;;;6.42;5.53;;;;;;;16.73;61.52;100426.07;1814329;79;27335;-51
2023/04/19 11:58:50;;;;;;;7.70;5.05;;;;;;;16.54;61.50;100426.70;1814178;79;25719;-54
2023/04/19 12:01:20;;;;;;;6.62;5.03;;;;;;;16.44;61.25;100428.55;1814241;79;25480;-51
2023/04/19 12:03:55;;;;;;;7.75;5.53;;;;;;;16.36;61.74;100434.94;1814292;79;25593;-55
2023/04/19 12:06:31;;;;;;;7.12;5.30;;;;;;;16.24;61.24;100441.21;1814350;79;25376;-57
2023/04/19 12:08:59;;;;;;;33.60;22.80;;;;;;;16.11;61.26;100442.39;1814342;79;27545;-56
2023/04/19 12:11:43;;;;;;;19.15;14.50;;;;;;;15.98;61.11;100440.22;1775448;80;25605;-57
2023/04/19 12:14:21;;;;;;;7.53;6.72;;;;;;;15.82;60.96;100436.81;1775614;80;25528;-55
2023/04/19 12:17:12;;;;;;;7.55;5.87;;;;;;;15.54;60.50;100446.19;1775435;80;25672;-56
2023/04/19 12:19:46;;;;;;;7.65;6.05;;;;;;;15.31;61.19;100437.64;1775193;80;25451;-52
2023/04/19 12:22:20;;;;;;;7.65;5.20;;;;;;;15.13;61.34;100443.25;1775307;80;27277;-54
2023/04/19 12:24:53;;;;;;;6.25;5.03;;;;;;;14.97;61.69;100441.52;1775215;80;25756;-52
2023/04/19 12:27:19;;;;;;;6.75;5.55;;;;;;;14.83;61.76;100445.31;1775319;80;25417;-60
2023/04/19 12:29:45;;;;;;;6.75;5.80;;;;;;;14.78;62.34;100437.35;1775229;80;25580;-59
2023/04/19 12:32:14;;;;;;;9.40;5.87;;;;;;;14.69;62.44;100440.70;1775234;80;25438;-59
2023/04/19 12:34:41;;;;;;;8.00;6.28;;;;;;;14.57;62.73;100436.77;1775228;80;27361;-58
2023/04/19 12:37:09;;;;;;;9.90;5.45;;;;;;;14.53;62.45;100438.55;1775157;80;25382;-59
2023/04/19 12:39:37;;;;;;;8.48;6.37;;;;;;;14.46;63.03;100442.36;1775268;80;25565;-59
2023/04/19 12:42:05;;;;;;;9.33;8.15;;;;;;;14.44;62.93;100443.27;1775184;80;25515;-55
2023/04/19 12:44:31;;;;;;;8.18;5.92;;;;;;;14.37;63.51;100441.07;1775184;80;25375;-55
2023/04/19 12:46:57;;;;;;;6.37;5.42;;;;;;;14.45;63.68;100444.05;1774000;80;27398;-54
2023/04/19 12:49:24;;;;;;;8.30;6.15;;;;;;;14.51;64.05;100444.89;1773739;80;25704;-58
2023/04/19 12:51:50;;;;;;;8.80;6.15;;;;;;;14.63;64.15;100446.91;1774939;80;25402;-60
2023/04/19 12:54:18;;;;;;;10.38;7.40;;;;;;;14.74;64.23;100440.48;1775137;80;25594;-60
2023/04/19 12:56:44;;;;;;;9.28;6.22;;;;;;;14.80;63.91;100436.45;1775273;80;25572;-59
2023/04/19 12:59:11;;;;;;;8.25;6.30;;;;;;;14.87;63.75;100435.33;1775202;80;27363;-60
2023/04/19 13:01:39;;;;;;;8.90;6.33;;;;;;;14.92;63.20;100441.15;1775092;80;25844;-59
2023/04/19 13:04:10;;;;;;;8.95;6.50;;;;;;;14.89;63.02;100434.43;1775136;80;25359;-62
2023/04/19 13:06:35;;;;;;;10.00;6.47;;;;;;;14.91;62.73;100439.00;1775084;80;25610;-59
2023/04/19 13:09:04;;;;;;;11.08;5.83;;;;;;;15.03;63.37;100434.14;1775200;80;25367;-59
2023/04/19 13:11:32;;;;;;;10.35;6.75;;;;;;;15.17;63.11;100428.41;1775222;80;28072;-59
2023/04/19 13:14:00;;;;;;;6.50;5.47;;;;;;;15.33;63.27;100430.49;1775077;80;25373;-60
2023/04/19 13:16:26;;;;;;;9.88;5.78;;;;;;;15.46;63.11;100425.27;1775275;80;25412;-60
2023/04/19 13:18:54;;;;;;;6.15;5.10;;;;;;;15.49;62.86;100424.05;1775185;80;25562;-60
2023/04/19 13:21:22;;;;;;;7.75;6.17;;;;;;;15.58;62.70;100428.03;1775245;80;25435;-58
2023/04/19 13:23:49;;;;;;;8.60;6.47;;;;;;;15.69;62.46;100421.55;1775307;80;27423;-61
2023/04/19 13:26:16;;;;;;;8.68;5.72;;;;;;;15.76;61.86;100425.11;1775155;80;25674;-59
2023/04/19 13:28:43;;;;;;;9.58;8.55;;;;;;;15.73;61.79;100423.81;1775299;80;25360;-59
2023/04/19 13:31:09;;;;;;;11.38;8.13;;;;;;;15.74;61.72;100419.18;1775200;80;25611;-60
2023/04/19 13:33:35;;;;;;;42.00;39.33;;;;;;;15.78;61.62;100416.02;1775272;80;25445;-60
2023/04/19 13:36:02;;;;;;;14.78;13.28;;;;;;;15.78;60.67;100418.74;1775240;80;27334;-60
2023/04/19 13:38:29;;;;;;;11.50;7.08;;;;;;;15.63;60.02;100411.45;1775133;80;25633;-58
2023/04/19 13:41:02;;;;;;;154.78;104.05;;;;;;;15.57;59.80;100419.61;1775311;80;25592;-55
2023/04/19 13:43:33;;;;;;;33.15;20.00;;;;;;;15.53;59.92;100416.53;1775344;80;26373;-54
2023/04/19 13:46:11;;;;;;;14.23;9.48;;;;;;;15.47;59.97;100415.39;1775397;80;25567;-54
2023/04/19 13:48:38;;;;;;;13.80;8.75;;;;;;;15.55;60.84;100419.16;1775412;80;27334;-56
2023/04/19 13:51:06;;;;;;;10.63;7.37;;;;;;;15.71;60.19;100415.77;1775117;80;25546;-58
2023/04/19 13:53:33;;;;;;;12.25;8.63;;;;;;;15.76;60.25;100418.30;1775251;80;25570;-58
2023/04/19 13:55:59;;;;;;;9.95;7.35;;;;;;;15.90;60.37;100415.22;1775195;80;25969;-55
2023/04/19 13:58:26;;;;;;;11.38;6.67;;;;;;;16.09;60.02;100415.45;1775235;80;25381;-57
2023/04/19 14:00:52;;;;;;;11.70;7.53;;;;;;;16.25;60.22;100416.31;1775174;80;27342;-57
2023/04/19 14:03:22;;;;;;;47.08;43.68;;;;;;;16.52;59.89;100413.19;1775051;80;25828;-58
2023/04/19 14:05:48;;;;;;;10.58;7.72;;;;;;;16.62;58.49;100414.06;1775349;80;25564;-55
2023/04/19 14:08:15;;;;;;;10.43;6.42;;;;;;;16.62;58.12;100415.43;1775156;80;26245;-58
2023/04/19 14:10:42;;;;;;;20.43;18.57;;;;;;;16.76;58.80;100412.30;1775244;80;25459;-58
2023/04/19 14:13:08;;;;;;;11.00;6.25;;;;;;;17.12;58.96;100407.25;1775227;80;27388;-54
2023/04/19 14:15:34;;;;;;;9.45;6.67;;;;;;;17.35;58.28;100397.89;1775019;80;27179;-56
2023/04/19 14:18:02;;;;;;;10.30;7.37;;;;;;;17.53;57.70;100397.53;1775202;80;25408;-57
2023/04/19 14:20:28;;;;;;;12.00;10.82;;;;;;;17.60;57.18;100397.70;1775058;80;25652;-56
2023/04/19 14:22:57;;;;;;;12.60;5.67;;;;;;;17.72;56.69;100394.08;1775164;80;25684;-59
2023/04/19 14:25:22;;;;;;;6.37;5.53;;;;;;;17.84;56.40;100387.70;1774905;80;27354;-57
2023/04/19 14:27:49;;;;;;;74.10;69.50;;;;;;;17.88;56.12;100393.52;1775089;80;25694;-55
2023/04/19 14:30:16;;;;;;;9.38;6.03;;;;;;;17.86;55.57;100388.98;1789456;79;25538;-57
2023/04/19 14:32:42;;;;;;;66.05;61.85;;;;;;;17.92;55.66;100395.75;1806399;79;25632;-56
2023/04/19 14:35:10;;;;;;;9.73;5.80;;;;;;;18.01;55.44;100391.44;1774594;80;25751;-58
2023/04/19 14:37:38;;;;;;;9.13;6.25;;;;;;;18.01;54.58;100391.44;1775454;80;27322;-58
2023/04/19 14:40:07;;;;;;;10.98;8.48;;;;;;;17.92;54.40;100388.91;1775058;80;25530;-58
2023/04/19 14:42:33;;;;;;;10.30;6.22;;;;;;;17.77;54.16;100403.37;1775318;80;25570;-57
2023/04/19 14:44:59;;;;;;;7.50;6.28;;;;;;;17.57;54.30;100390.78;1775113;80;25670;-55
2023/04/19 14:47:25;;;;;;;11.08;7.40;;;;;;;17.36;54.41;100391.27;1775164;80;25447;-61
2023/04/19 14:49:52;;;;;;;15.90;6.30;;;;;;;17.16;54.81;100401.32;1775175;80;27943;-61
2023/04/19 14:52:20;;;;;;;15.13;13.62;;;;;;;17.01;55.05;100403.45;1775082;80;25459;-58
2023/04/19 14:54:47;;;;;;;16.48;8.40;;;;;;;16.88;55.55;100415.00;1775211;80;25404;-58
2023/04/19 14:57:13;;;;;;;7.35;5.35;;;;;;;16.74;55.44;100442.69;1775108;80;25669;-58
2023/04/19 14:59:40;;;;;;;6.87;4.08;;;;;;;16.42;54.08;100441.77;1775211;80;25565;-58
2023/04/19 15:02:09;;;;;;;8.98;4.95;;;;;;;15.78;54.41;100452.28;1775143;80;27406;-57
2023/04/19 15:04:37;;;;;;;10.50;4.83;;;;;;;15.18;55.65;100470.07;1775069;80;25781;-57
2023/04/19 15:07:03;;;;;;;9.98;4.85;;;;;;;14.64;57.21;100462.67;1774187;80;26042;-57
2023/04/19 15:09:30;;;;;;;6.25;4.33;;;;;;;14.18;58.72;100461.92;1775209;80;25573;-56
2023/04/19 15:11:56;;;;;;;10.13;4.12;;;;;;;13.87;59.92;100464.94;1775120;80;25602;-59
2023/04/19 15:14:23;;;;;;;5.87;4.62;;;;;;;13.51;60.66;100465.41;1775134;80;29498;-59
2023/04/19 15:16:49;;;;;;;11.05;4.65;;;;;;;13.21;61.80;100457.13;1775028;80;25626;-60
2023/04/19 15:19:15;;;;;;;9.23;5.30;;;;;;;12.97;63.05;100460.35;1775036;80;29685;-59
2023/04/19 15:21:42;;;;;;;8.28;5.80;;;;;;;12.80;62.99;100445.66;1775052;80;25656;-60
2023/04/19 15:24:08;;;;;;;7.30;5.35;;;;;;;12.65;64.70;100440.17;1775123;80;25622;-60
2023/04/19 15:26:35;;;;;;;8.93;5.28;;;;;;;12.55;65.76;100445.92;1775105;80;27363;-60
2023/04/19 15:29:01;;;;;;;11.30;5.78;;;;;;;12.44;65.91;100450.05;1775069;80;25416;-59
2023/04/19 15:31:27;;;;;;;9.08;6.08;;;;;;;12.36;67.59;100453.54;1775164;80;25380;-59
2023/04/19 15:33:54;;;;;;;13.72;6.15;;;;;;;12.26;68.50;100460.87;1775083;80;25633;-60
2023/04/19 15:36:21;;;;;;;9.53;5.78;;;;;;;12.16;69.21;100454.39;1775159;80;25572;-59
2023/04/19 15:38:47;;;;;;;8.65;4.97;;;;;;;12.07;69.59;100453.55;1775275;80;27337;-58
2023/04/19 15:41:13;;;;;;;6.83;4.97;;;;;;;11.96;70.10;100453.84;1774982;80;25985;-62
2023/04/19 15:43:40;;;;;;;12.23;5.97;;;;;;;11.92;70.02;100458.31;1753259;80;25581;-59
2023/04/19 15:46:08;;;;;;;12.10;6.20;;;;;;;11.90;70.09;100455.09;1775124;80;25629;-60
2023/04/19 15:48:34;;;;;;;10.98;6.12;;;;;;;11.89;71.30;100458.90;1774547;80;25555;-57
2023/04/19 15:51:01;;;;;;;10.28;5.30;;;;;;;11.87;71.92;100457.06;1775164;80;27361;-52
2023/04/19 15:53:28;;;;;;;8.58;5.72;;;;;;;11.87;72.28;100454.92;1775199;80;25819;-55
2023/04/19 15:55:56;;;;;;;10.18;5.95;;;;;;;11.86;72.66;100457.37;1775379;80;25554;-56
2023/04/19 15:58:23;;;;;;;12.05;7.03;;;;;;;11.82;72.73;100459.91;1775241;80;25629;-61
2023/04/19 16:00:50;;;;;;;12.85;7.70;;;;;;;11.81;72.92;100461.02;1775279;80;25628;-61
2023/04/19 16:03:17;;;;;;;15.50;8.83;;;;;;;11.80;73.18;100464.03;1775263;80;27370;-60
2023/04/19 16:05:44;;;;;;;13.32;7.67;;;;;;;11.75;73.41;100465.78;1776564;80;25757;-65
2023/04/19 16:08:16;;;;;;;22.10;10.93;;;;;;;11.71;73.81;100468.89;1805166;79;25660;-60
2023/04/19 16:10:40;;;;;;;12.63;7.92;;;;;;;11.68;74.03;100474.92;1774915;80;25740;-59
2023/04/19 16:13:06;;;;;;;8.90;6.62;;;;;;;11.65;74.33;100471.48;1775323;80;25384;-57
2023/04/19 16:15:33;;;;;;;9.05;6.28;;;;;;;11.62;74.33;100469.38;1775267;80;27355;-57
2023/04/19 16:18:01;;;;;;;9.05;7.37;;;;;;;11.59;75.03;100473.53;1774953;80;25610;-57
2023/04/19 16:20:28;;;;;;;11.75;6.78;;;;;;;11.58;75.06;100476.55;1774210;80;25713;-58
2023/04/19 16:22:56;;;;;;;8.53;6.20;;;;;;;11.56;75.68;100483.63;1775193;80;25623;-60
2023/04/19 16:25:25;;;;;;;8.30;6.30;;;;;;;11.52;76.01;100486.70;1775247;80;25721;-57
2023/04/19 16:27:52;;;;;;;12.20;8.15;;;;;;;11.50;75.98;100491.63;1787048;79;27884;-59
2023/04/19 16:30:19;;;;;;;9.23;7.60;;;;;;;11.47;75.87;100495.52;1810458;79;25438;-59
2023/04/19 16:32:46;;;;;;;11.18;6.95;;;;;;;11.48;76.18;100494.42;1814219;79;25435;-56
2023/04/19 16:35:13;;;;;;;10.40;7.35;;;;;;;11.46;76.71;100497.44;1814270;79;26189;-59
2023/04/19 16:37:39;;;;;;;10.35;7.65;;;;;;;11.45;77.27;100499.09;1814244;79;25370;-58
2023/04/19 16:40:09;;;;;;;11.78;8.05;;;;;;;11.43;77.32;100499.41;1814306;78;27410;-58
2023/04/19 16:42:38;;;;;;;12.23;6.85;;;;;;;11.41;77.80;100501.63;1814158;79;25793;-56
2023/04/19 16:45:08;;;;;;;11.03;6.83;;;;;;;11.39;77.89;100505.17;1814397;79;25450;-56
2023/04/19 16:47:35;;;;;;;10.95;6.15;;;;;;;11.36;78.06;100505.25;1814338;79;25653;-57
2023/04/19 16:50:05;;;;;;;12.70;6.87;;;;;;;11.34;78.29;100508.01;1814267;79;25427;-59
2023/04/19 16:52:34;;;;;;;10.05;6.90;;;;;;;11.30;78.25;100512.45;1814252;79;27501;-56
2023/04/19 16:55:05;;;;;;;11.57;6.97;;;;;;;11.24;78.37;100510.44;1814257;79;25600;-57
2023/04/19 16:57:32;;;;;;;9.35;6.75;;;;;;;11.19;78.50;100509.99;1814364;79;25535;-59
2023/04/19 17:00:00;;;;;;;9.30;6.97;;;;;;;11.19;78.38;100509.20;1814165;79;26330;-57
2023/04/19 17:02:26;;;;;;;9.18;7.10;;;;;;;11.17;78.83;100515.48;1814220;79;25379;-58
2023/04/19 17:04:53;;;;;;;11.10;7.20;;;;;;;11.12;78.78;100513.69;1814227;79;27387;-57
2023/04/19 17:07:19;;;;;;;8.80;6.97;;;;;;;11.11;79.04;100513.43;1814127;79;25610;-58
2023/04/19 17:09:45;;;;;;;11.15;7.40;;;;;;;11.09;79.49;100526.48;1814201;79;25382;-58
2023/04/19 17:12:16;;;;;;;11.63;7.35;;;;;;;11.05;79.64;100520.09;1814174;79;25727;-58
2023/04/19 17:14:42;;;;;;;13.08;8.03;;;;;;;11.06;79.92;100526.30;1814395;79;25586;-57
2023/04/19 17:17:09;;;;;;;14.38;7.83;;;;;;;11.04;79.66;100530.66;1814209;79;27490;-57
2023/04/19 17:19:35;;;;;;;13.00;9.33;;;;;;;11.02;79.70;100535.02;1812485;79;25400;-57
2023/04/19 17:22:04;;;;;;;13.35;8.05;;;;;;;11.00;79.63;100537.23;1797811;79;25574;-57
2023/04/19 17:24:33;;;;;;;13.65;9.15;;;;;;;10.99;80.11;100538.89;1793083;80;25783;-58
2023/04/19 17:27:01;;;;;;;15.03;10.13;;;;;;;10.97;80.25;100547.31;1793295;80;25548;-57
2023/04/19 17:29:29;;;;;;;17.42;12.63;;;;;;;10.93;80.32;100546.88;1742143;82;28004;-58
2023/04/19 17:31:56;;;;;;;22.25;12.95;;;;;;;10.89;80.19;100543.98;1742033;81;25772;-56
2023/04/19 17:34:23;;;;;;;31.40;16.73;;;;;;;10.88;80.49;100553.75;1733921;82;25578;-59
2023/04/19 17:36:49;;;;;;;30.75;18.67;;;;;;;10.84;80.35;100555.73;1733828;81;25664;-56
2023/04/19 17:39:17;;;;;;;44.48;23.55;;;;;;;10.81;80.38;100559.58;1728215;83;25437;-57
2023/04/19 17:41:44;;;;;;;38.67;20.95;;;;;;;10.76;80.12;100556.98;1728149;83;27334;-58
2023/04/19 17:44:11;;;;;;;40.63;22.87;;;;;;;10.71;80.18;100557.91;1728139;83;25400;-58